Time;durP1;ratioP1;P1;durP2;ratioP2;P2;SDS_P1;SDS_P2;PMS_P1;PMS_P2;Temp;Humidity;BMP_temperature;BMP_pressure;BME280_temperature;BME280_humidity;BME280_pressure;Samples;Min_cycle;Max_cycle;Signal;HPM_P1;HPM_P2
2020/12/16 00:01:01;;;;;;;14.48;9.15;;;9.60;99.90;;;;;;5034374;28;20266;-83
2020/12/16 00:03:29;;;;;;;12.82;8.52;;;9.60;99.90;;;;;;5034477;28;20213;-84
2020/12/16 00:05:56;;;;;;;12.60;8.90;;;9.50;99.90;;;;;;5034353;28;20234;-82
2020/12/16 00:08:22;;;;;;;15.95;9.35;;;9.20;99.90;;;;;;5034232;28;20428;-82
2020/12/16 00:10:49;;;;;;;13.40;8.87;;;9.60;99.90;;;;;;5035462;28;20217;-82
2020/12/16 00:13:15;;;;;;;10.45;8.48;;;9.60;99.90;;;;;;5037081;28;20516;-81
2020/12/16 00:15:44;;;;;;;12.75;10.18;;;9.70;99.90;;;;;;5035311;28;20207;-82
2020/12/16 00:18:10;;;;;;;11.43;8.65;;;9.70;99.90;;;;;;5043588;28;20309;-83
2020/12/16 00:20:38;;;;;;;10.35;8.15;;;9.40;99.90;;;;;;5039647;28;20209;-83
2020/12/16 00:23:04;;;;;;;13.88;9.80;;;9.50;99.90;;;;;;5034350;28;20227;-84
2020/12/16 00:25:31;;;;;;;17.02;8.15;;;9.50;99.90;;;;;;5032441;28;20211;-81
2020/12/16 00:27:58;;;;;;;13.90;9.05;;;9.30;99.90;;;;;;5033795;28;20207;-81
2020/12/16 00:30:24;;;;;;;13.55;10.18;;;9.60;99.90;;;;;;5032998;28;20286;-83
2020/12/16 00:32:51;;;;;;;12.43;8.88;;;9.40;99.90;;;;;;5021040;28;20520;-82
2020/12/16 00:35:17;;;;;;;12.77;9.60;;;9.30;99.90;;;;;;5033016;28;20199;-82
2020/12/16 00:37:45;;;;;;;14.80;8.95;;;9.40;99.90;;;;;;5032418;28;20211;-83
2020/12/16 00:40:13;;;;;;;11.37;8.90;;;9.40;99.90;;;;;;5033179;28;20226;-82
2020/12/16 00:42:46;;;;;;;12.05;9.57;;;9.40;99.90;;;;;;5032695;28;20512;-82
2020/12/16 00:45:13;;;;;;;11.20;8.32;;;9.40;99.90;;;;;;5033666;28;20199;-84
2020/12/16 00:47:39;;;;;;;13.45;9.27;;;9.50;99.90;;;;;;5032193;28;20657;-82
2020/12/16 00:50:08;;;;;;;12.10;8.63;;;9.80;99.90;;;;;;5032892;28;20241;-81
2020/12/16 00:52:34;;;;;;;12.77;8.65;;;9.40;99.90;;;;;;5032739;28;20286;-84
2020/12/16 00:55:02;;;;;;;13.23;10.07;;;9.40;99.90;;;;;;5033265;28;20211;-83
2020/12/16 00:57:29;;;;;;;12.43;8.77;;;9.50;99.90;;;;;;5032325;28;20208;-83
2020/12/16 00:59:55;;;;;;;13.57;11.18;;;9.20;99.90;;;;;;5033547;28;20230;-82
2020/12/16 01:02:22;;;;;;;16.52;11.27;;;8.90;99.90;;;;;;5031403;28;20296;-81
2020/12/16 01:04:48;;;;;;;15.13;9.88;;;9.20;99.90;;;;;;5032324;28;20222;-84
2020/12/16 01:07:15;;;;;;;14.48;10.13;;;9.00;99.90;;;;;;5030849;28;20207;-83
2020/12/16 01:09:41;;;;;;;10.75;9.30;;;9.10;99.90;;;;;;5034689;28;20203;-83
2020/12/16 01:12:09;;;;;;;12.27;9.47;;;9.10;99.90;;;;;;5035072;28;20227;-85
2020/12/16 01:14:35;;;;;;;13.37;10.20;;;9.10;99.90;;;;;;5034324;28;20444;-82
2020/12/16 01:17:02;;;;;;;11.68;9.80;;;9.30;99.90;;;;;;5034078;28;20944;-84
2020/12/16 01:19:28;;;;;;;11.60;9.23;;;9.30;99.90;;;;;;5034438;28;20231;-85
2020/12/16 01:21:55;;;;;;;14.20;10.90;;;9.30;99.90;;;;;;5034346;28;20605;-84
2020/12/16 01:24:26;;;;;;;13.32;9.95;;;9.50;99.90;;;;;;5034312;28;20199;-84
2020/12/16 01:26:54;;;;;;;13.80;9.00;;;9.50;99.90;;;;;;5034558;28;20262;-84
2020/12/16 01:29:22;;;;;;;12.85;10.10;;;9.30;99.90;;;;;;5034624;28;20771;-84
2020/12/16 01:31:49;;;;;;;15.00;9.07;;;9.30;99.90;;;;;;5017503;28;20267;-84
2020/12/16 01:34:19;;;;;;;15.13;9.60;;;9.30;99.90;;;;;;5034183;28;20553;-81
2020/12/16 01:36:48;;;;;;;12.15;9.57;;;9.50;99.90;;;;;;5033935;28;20210;-84
2020/12/16 01:39:16;;;;;;;13.35;9.85;;;9.20;99.90;;;;;;5033661;28;20262;-84
2020/12/16 01:41:43;;;;;;;10.85;8.95;;;9.30;99.90;;;;;;5033231;28;20242;-82
2020/12/16 01:44:11;;;;;;;12.52;9.20;;;9.40;99.90;;;;;;5044606;28;20230;-84
2020/12/16 01:46:45;;;;;;;10.80;8.90;;;9.50;99.90;;;;;;5033935;28;20199;-84
2020/12/16 01:49:12;;;;;;;13.10;9.90;;;9.10;99.90;;;;;;5033373;28;20654;-84
2020/12/16 01:51:39;;;;;;;12.05;9.63;;;9.50;99.90;;;;;;5033470;28;20242;-82
2020/12/16 01:54:07;;;;;;;11.75;9.95;;;9.40;99.90;;;;;;5033969;28;20215;-83
2020/12/16 01:56:36;;;;;;;14.18;9.70;;;9.70;99.90;;;;;;5035966;28;20210;-83
2020/12/16 01:59:04;;;;;;;12.80;10.03;;;9.80;99.90;;;;;;5054574;28;20238;-83
2020/12/16 02:01:33;;;;;;;12.52;8.88;;;9.30;99.90;;;;;;5042770;28;20587;-82
2020/12/16 02:04:03;;;;;;;12.90;9.07;;;9.60;99.90;;;;;;5041902;28;20277;-83
2020/12/16 02:06:33;;;;;;;11.93;8.88;;;9.60;99.90;;;;;;5024711;28;20773;-84
2020/12/16 02:09:05;;;;;;;10.43;8.10;;;9.60;99.90;;;;;;5039013;28;20195;-84
2020/12/16 02:11:32;;;;;;;12.20;9.25;;;9.60;99.90;;;;;;5040350;28;20623;-83
2020/12/16 02:13:59;;;;;;;12.35;8.45;;;9.40;99.90;;;;;;5037699;28;20574;-84
2020/12/16 02:16:26;;;;;;;11.35;9.48;;;9.40;99.90;;;;;;5039462;28;20281;-83
2020/12/16 02:18:53;;;;;;;12.47;10.00;;;9.30;99.90;;;;;;5018421;28;20243;-84
2020/12/16 02:21:20;;;;;;;12.18;8.23;;;9.60;99.90;;;;;;5018641;28;20478;-84
2020/12/16 02:23:49;;;;;;;10.90;9.25;;;9.60;99.90;;;;;;5036767;28;20202;-84
2020/12/16 02:26:16;;;;;;;12.80;8.13;;;9.80;99.90;;;;;;5037709;28;20207;-83
2020/12/16 02:28:43;;;;;;;11.30;8.80;;;9.70;99.90;;;;;;5057444;28;20220;-84
2020/12/16 02:31:10;;;;;;;12.80;9.30;;;9.90;99.90;;;;;;5041068;28;20292;-83
2020/12/16 02:33:37;;;;;;;11.00;7.72;;;10.00;99.90;;;;;;5037699;28;20692;-84
2020/12/16 02:36:04;;;;;;;10.55;8.40;;;10.00;99.90;;;;;;5038060;28;20214;-83
2020/12/16 02:38:32;;;;;;;9.65;8.23;;;10.00;99.90;;;;;;5049416;28;20301;-85
2020/12/16 02:40:58;;;;;;;12.52;9.13;;;9.90;99.90;;;;;;5044995;28;20211;-84
2020/12/16 02:43:26;;;;;;;11.13;8.57;;;9.90;99.90;;;;;;5039663;28;20230;-85
2020/12/16 02:45:52;;;;;;;13.93;9.70;;;9.70;99.90;;;;;;5040705;28;20203;-85
2020/12/16 02:48:19;;;;;;;11.65;9.55;;;9.60;99.90;;;;;;5038718;28;20266;-84
2020/12/16 02:50:45;;;;;;;13.87;9.20;;;9.50;99.90;;;;;;5023576;28;20207;-85
2020/12/16 02:53:12;;;;;;;13.20;9.63;;;9.60;99.90;;;;;;5038994;28;20454;-84
2020/12/16 02:55:38;;;;;;;12.68;8.98;;;9.30;99.90;;;;;;5038225;28;20665;-85
2020/12/16 02:58:05;;;;;;;11.00;8.15;;;9.60;99.90;;;;;;5037882;28;20211;-85
2020/12/16 03:00:32;;;;;;;10.07;7.88;;;9.60;99.90;;;;;;5038124;28;20402;-85
2020/12/16 03:02:59;;;;;;;12.32;8.43;;;9.60;99.90;;;;;;5037161;28;20275;-85
2020/12/16 03:05:25;;;;;;;12.50;9.80;;;9.90;99.90;;;;;;5037779;28;20214;-85
2020/12/16 03:07:52;;;;;;;12.90;9.10;;;9.90;99.90;;;;;;5036841;28;20552;-84
2020/12/16 03:10:18;;;;;;;11.10;8.95;;;9.70;99.90;;;;;;5036712;28;20208;-84
2020/12/16 03:12:45;;;;;;;12.50;9.00;;;10.00;99.90;;;;;;5036953;28;20223;-85
2020/12/16 03:15:11;;;;;;;10.73;8.55;;;9.90;99.90;;;;;;5039457;28;20484;-85
2020/12/16 03:17:39;;;;;;;12.05;8.57;;;10.00;99.90;;;;;;5039063;28;20199;-85
2020/12/16 03:20:05;;;;;;;13.20;9.63;;;9.90;99.90;;;;;;5037094;28;20605;-84
2020/12/16 03:22:32;;;;;;;12.43;8.90;;;10.00;99.90;;;;;;5037533;28;20230;-85
2020/12/16 03:24:58;;;;;;;12.70;9.32;;;9.70;99.90;;;;;;5037139;28;20207;-83
2020/12/16 03:27:25;;;;;;;11.65;9.02;;;9.60;99.90;;;;;;5035297;28;20207;-84
2020/12/16 03:29:51;;;;;;;11.57;9.20;;;9.80;99.90;;;;;;5034478;28;20208;-83
2020/12/16 03:32:18;;;;;;;13.10;9.63;;;9.80;99.90;;;;;;5036613;28;20227;-83
2020/12/16 03:34:45;;;;;;;11.60;9.60;;;9.80;99.90;;;;;;5035927;28;20275;-83
2020/12/16 03:37:12;;;;;;;13.23;9.20;;;9.90;99.90;;;;;;5036234;28;20256;-83
2020/12/16 03:39:39;;;;;;;13.07;10.50;;;9.70;99.90;;;;;;5035416;28;20513;-83
2020/12/16 03:42:05;;;;;;;13.32;10.15;;;9.70;99.90;;;;;;5035636;28;20262;-83
2020/12/16 03:44:32;;;;;;;13.80;10.70;;;9.70;99.90;;;;;;5036268;28;20218;-83
2020/12/16 03:46:58;;;;;;;13.85;10.23;;;9.70;99.90;;;;;;5037112;28;20203;-84
2020/12/16 03:49:25;;;;;;;17.33;11.63;;;9.80;99.90;;;;;;5043211;28;20322;-84
2020/12/16 03:51:53;;;;;;;14.40;10.07;;;9.40;99.90;;;;;;5047493;28;20227;-83
2020/12/16 03:54:20;;;;;;;14.10;10.60;;;9.70;99.90;;;;;;5042074;28;20217;-84
2020/12/16 03:56:48;;;;;;;14.60;10.47;;;9.70;99.90;;;;;;5038313;28;20450;-82
2020/12/16 03:59:14;;;;;;;13.45;9.93;;;10.00;99.90;;;;;;5047597;28;20484;-83
2020/12/16 04:01:41;;;;;;;12.52;10.43;;;9.40;99.90;;;;;;5057589;28;20223;-84
2020/12/16 04:04:11;;;;;;;15.00;11.50;;;9.80;99.90;;;;;;5047666;28;20207;-84
2020/12/16 04:06:37;;;;;;;15.90;11.35;;;9.80;99.90;;;;;;5038363;28;20480;-84
2020/12/16 04:09:06;;;;;;;13.18;10.38;;;9.60;99.90;;;;;;5038339;28;20199;-83
2020/12/16 04:11:32;;;;;;;13.90;10.93;;;9.70;99.90;;;;;;5043940;28;20277;-83
2020/12/16 04:13:59;;;;;;;13.90;10.52;;;9.80;99.90;;;;;;5054150;28;20195;-82
2020/12/16 04:16:25;;;;;;;13.18;11.20;;;9.80;99.90;;;;;;5042015;28;20280;-84
2020/12/16 04:18:53;;;;;;;13.77;11.10;;;9.70;99.90;;;;;;5037221;28;20211;-83
2020/12/16 04:21:20;;;;;;;12.93;10.32;;;9.80;99.90;;;;;;5037191;28;20235;-84
2020/12/16 04:23:47;;;;;;;14.00;10.90;;;9.40;99.90;;;;;;5036500;28;20547;-84
2020/12/16 04:26:15;;;;;;;14.93;10.93;;;9.50;99.90;;;;;;5036961;28;20264;-83
2020/12/16 04:28:42;;;;;;;16.10;10.40;;;9.70;99.90;;;;;;5038616;28;20191;-84
2020/12/16 04:31:11;;;;;;;13.18;10.02;;;9.80;99.90;;;;;;5038207;28;20243;-81
2020/12/16 04:33:38;;;;;;;12.02;10.18;;;9.80;99.90;;;;;;5036924;28;20226;-84
2020/12/16 04:36:04;;;;;;;14.20;10.95;;;9.70;99.90;;;;;;5037719;28;20853;-84
2020/12/16 04:38:31;;;;;;;15.93;11.07;;;9.70;99.90;;;;;;5039703;28;20214;-83
2020/12/16 04:40:57;;;;;;;12.20;10.30;;;9.60;99.90;;;;;;5052366;28;20230;-84
2020/12/16 04:43:25;;;;;;;14.82;10.68;;;9.60;99.90;;;;;;5037297;28;20257;-84
2020/12/16 04:45:53;;;;;;;13.50;11.38;;;9.50;99.90;;;;;;5037259;28;20207;-84
2020/12/16 04:48:19;;;;;;;19.92;12.52;;;9.30;99.90;;;;;;5037412;28;20561;-83
2020/12/16 04:50:47;;;;;;;14.73;11.27;;;9.40;99.90;;;;;;5038192;28;20226;-84
2020/12/16 04:53:17;;;;;;;12.80;10.40;;;9.60;99.90;;;;;;5037569;28;20214;-84
2020/12/16 04:55:43;;;;;;;12.57;10.52;;;9.60;99.90;;;;;;5036961;28;20246;-83
2020/12/16 04:58:10;;;;;;;14.05;11.20;;;9.30;99.90;;;;;;5035949;28;20733;-84
2020/12/16 05:00:38;;;;;;;12.75;10.52;;;9.50;99.90;;;;;;5037291;28;20322;-83
2020/12/16 05:03:06;;;;;;;15.73;12.38;;;9.60;99.90;;;;;;5036219;28;20241;-84
2020/12/16 05:05:33;;;;;;;13.15;10.35;;;9.50;99.90;;;;;;5034277;28;20599;-81
2020/12/16 05:08:08;;;;;;;13.35;10.38;;;9.70;99.90;;;;;;5033040;28;20705;-83
2020/12/16 05:10:36;;;;;;;14.57;10.55;;;9.80;99.90;;;;;;5014321;28;20200;-81
2020/12/16 05:13:05;;;;;;;13.98;10.15;;;9.60;99.90;;;;;;5032454;28;20858;-81
2020/12/16 05:15:33;;;;;;;16.42;11.40;;;9.20;99.90;;;;;;5034003;28;20203;-81
2020/12/16 05:18:12;;;;;;;12.30;9.45;;;9.30;99.90;;;;;;5034538;28;20266;-81
2020/12/16 05:20:41;;;;;;;14.52;9.80;;;9.20;99.90;;;;;;5034106;28;20222;-81
2020/12/16 05:23:09;;;;;;;13.60;10.38;;;9.20;99.90;;;;;;5035270;28;20589;-81
2020/12/16 05:25:36;;;;;;;13.05;11.05;;;9.00;99.90;;;;;;5033744;28;20218;-81
2020/12/16 05:28:03;;;;;;;15.60;11.00;;;9.10;99.90;;;;;;5032976;28;20206;-81
2020/12/16 05:30:30;;;;;;;13.48;10.35;;;9.10;99.90;;;;;;5032875;28;20218;-81
2020/12/16 05:33:00;;;;;;;14.00;10.48;;;9.30;99.90;;;;;;5031982;28;20223;-84
2020/12/16 05:35:29;;;;;;;10.85;9.45;;;9.20;99.90;;;;;;5035971;28;20206;-82
2020/12/16 05:38:07;;;;;;;10.88;9.30;;;9.20;99.90;;;;;;5035554;28;20290;-83
2020/12/16 05:40:36;;;;;;;11.85;9.73;;;9.30;99.90;;;;;;5036263;28;20230;-81
2020/12/16 05:43:04;;;;;;;11.95;9.32;;;9.20;99.90;;;;;;5036702;28;20239;-81
2020/12/16 05:45:31;;;;;;;13.32;9.82;;;9.20;99.90;;;;;;5037789;28;20207;-86
2020/12/16 05:48:03;;;;;;;11.77;8.90;;;9.40;99.90;;;;;;5041646;28;20218;-85
2020/12/16 05:50:33;;;;;;;11.80;9.45;;;9.20;99.90;;;;;;5058698;28;20289;-83
2020/12/16 05:53:19;;;;;;;14.60;10.00;;;9.10;99.90;;;;;;5048001;28;20219;-83
2020/12/16 05:55:50;;;;;;;11.52;8.50;;;8.90;99.90;;;;;;5039149;28;20211;-83
2020/12/16 05:58:18;;;;;;;13.10;10.20;;;9.20;99.90;;;;;;5039451;28;20276;-82
2020/12/16 06:00:53;;;;;;;13.57;10.20;;;9.00;99.90;;;;;;5038468;28;20250;-83
2020/12/16 06:03:22;;;;;;;13.32;9.50;;;9.20;99.90;;;;;;5037787;28;20207;-83
2020/12/16 06:05:51;;;;;;;13.15;9.38;;;9.10;99.90;;;;;;5039909;28;20196;-84
2020/12/16 06:08:19;;;;;;;13.68;9.65;;;9.00;99.90;;;;;;5039908;28;20211;-82
2020/12/16 06:10:47;;;;;;;12.68;10.07;;;9.00;99.90;;;;;;5036432;28;20191;-82
2020/12/16 06:13:15;;;;;;;11.07;9.50;;;9.20;99.90;;;;;;5041399;28;20221;-82
2020/12/16 06:16:03;;;;;;;19.08;15.73;;;9.30;99.90;;;;;;5041559;28;20535;-82
2020/12/16 06:18:32;;;;;;;28.25;20.40;;;9.10;99.90;;;;;;5030618;28;20241;-82
2020/12/16 06:21:01;;;;;;;17.35;13.50;;;9.40;99.90;;;;;;5035327;28;20207;-82
2020/12/16 06:23:31;;;;;;;15.20;12.00;;;9.20;99.90;;;;;;5035860;28;20216;-82
2020/12/16 06:26:00;;;;;;;13.85;10.65;;;9.20;99.90;;;;;;5036785;28;20207;-83
2020/12/16 06:28:28;;;;;;;12.25;10.10;;;9.40;99.90;;;;;;5016506;28;20639;-82
2020/12/16 06:30:58;;;;;;;12.13;9.93;;;9.20;99.90;;;;;;5036886;28;20281;-82
2020/12/16 06:33:33;;;;;;;13.07;10.32;;;9.10;99.90;;;;;;5037360;28;20203;-82
2020/12/16 06:36:03;;;;;;;14.68;11.35;;;9.10;99.90;;;;;;5037170;28;20229;-82
2020/12/16 06:38:30;;;;;;;14.63;10.32;;;9.20;99.90;;;;;;5036125;28;20215;-83
2020/12/16 06:40:58;;;;;;;13.25;10.27;;;9.00;99.90;;;;;;5041244;28;20199;-83
2020/12/16 06:43:49;;;;;;;13.18;9.85;;;9.10;99.90;;;;;;5037106;28;20218;-81
2020/12/16 06:46:46;;;;;;;15.25;10.32;;;9.20;99.90;;;;;;5021720;28;20626;-81
2020/12/16 06:49:31;;;;;;;12.60;9.82;;;9.40;99.90;;;;;;5036568;28;20206;-82
2020/12/16 06:52:01;;;;;;;12.70;9.38;;;9.40;99.90;;;;;;5036565;28;20227;-83
2020/12/16 06:54:37;;;;;;;11.90;9.45;;;9.50;99.90;;;;;;5038224;28;20388;-83
2020/12/16 06:57:18;;;;;;;12.88;9.48;;;9.00;99.90;;;;;;5052294;28;20272;-82
2020/12/16 06:59:53;;;;;;;13.13;9.95;;;8.90;99.90;;;;;;5039304;28;20254;-81
2020/12/16 07:02:34;;;;;;;11.05;9.23;;;8.80;99.90;;;;;;5035193;28;20235;-83
2020/12/16 07:05:02;;;;;;;13.93;10.05;;;8.80;99.90;;;;;;5033815;28;20747;-83
2020/12/16 07:07:49;;;;;;;15.23;9.65;;;8.80;99.90;;;;;;5033788;28;20630;-83
2020/12/16 07:10:52;;;;;;;14.63;10.50;;;9.10;99.90;;;;;;5033655;28;20233;-82
2020/12/16 07:13:30;;;;;;;13.38;9.55;;;8.80;99.90;;;;;;5035446;28;20561;-83
2020/12/16 07:16:01;;;;;;;12.20;9.23;;;9.00;99.90;;;;;;5033132;28;20209;-82
2020/12/16 07:18:44;;;;;;;11.90;9.02;;;8.80;99.90;;;;;;5033962;28;20604;-81
2020/12/16 07:21:36;;;;;;;14.27;10.73;;;8.70;99.90;;;;;;5034435;28;20219;-84
2020/12/16 07:24:12;;;;;;;12.85;8.80;;;8.80;99.90;;;;;;5014908;28;20234;-81
2020/12/16 07:26:50;;;;;;;12.95;8.70;;;8.90;99.90;;;;;;5018516;28;20302;-82
2020/12/16 07:29:29;;;;;;;11.15;9.15;;;8.70;99.90;;;;;;5038995;28;20191;-83
2020/12/16 07:31:58;;;;;;;11.50;8.77;;;8.90;99.90;;;;;;5038573;28;20223;-83
2020/12/16 07:34:25;;;;;;;11.05;8.30;;;8.80;99.90;;;;;;5038287;28;20256;-83
2020/12/16 07:36:57;;;;;;;11.73;8.57;;;9.00;99.90;;;;;;5038777;28;20206;-83
2020/12/16 07:39:24;;;;;;;11.98;8.52;;;9.00;99.90;;;;;;5038336;28;20678;-82
2020/12/16 07:41:51;;;;;;;11.30;8.27;;;9.00;99.90;;;;;;5042450;28;20242;-82
2020/12/16 07:44:18;;;;;;;9.65;8.18;;;9.00;99.90;;;;;;5047256;28;20450;-82
2020/12/16 07:46:44;;;;;;;10.63;8.35;;;9.10;99.90;;;;;;5045186;28;20202;-83
2020/12/16 07:49:12;;;;;;;14.45;8.80;;;9.20;99.90;;;;;;5049735;28;20214;-84
2020/12/16 07:51:39;;;;;;;13.93;8.50;;;9.10;99.90;;;;;;5046134;28;20227;-83
2020/12/16 07:54:05;;;;;;;11.15;8.65;;;9.10;99.90;;;;;;5044663;28;20222;-83
2020/12/16 07:56:33;;;;;;;12.23;9.30;;;9.20;99.90;;;;;;5038730;28;20196;-83
2020/12/16 07:59:09;;;;;;;14.07;7.80;;;9.10;99.90;;;;;;5036845;28;20257;-84
2020/12/16 08:01:36;;;;;;;12.32;8.30;;;9.00;99.90;;;;;;5040878;28;20214;-83
2020/12/16 08:04:03;;;;;;;12.88;8.00;;;8.70;99.90;;;;;;5039090;28;20271;-83
2020/12/16 08:06:30;;;;;;;12.30;8.68;;;8.90;99.90;;;;;;5047771;28;20214;-83
2020/12/16 08:08:56;;;;;;;11.60;8.82;;;8.80;99.90;;;;;;5048125;28;20279;-81
2020/12/16 08:11:25;;;;;;;8.82;7.10;;;8.80;99.90;;;;;;5047056;28;20227;-85
2020/12/16 08:14:02;;;;;;;9.80;7.50;;;9.00;99.90;;;;;;5037589;28;20219;-82
2020/12/16 08:16:32;;;;;;;15.13;9.27;;;9.10;99.90;;;;;;5032070;28;20209;-82
2020/12/16 08:18:59;;;;;;;11.40;7.50;;;9.30;99.90;;;;;;5036831;28;20227;-84
2020/12/16 08:21:26;;;;;;;9.88;7.70;;;9.20;99.90;;;;;;5037992;28;20227;-84
2020/12/16 08:23:53;;;;;;;10.88;8.43;;;9.50;99.90;;;;;;5042295;28;20203;-84
2020/12/16 08:26:21;;;;;;;13.45;7.50;;;9.40;99.90;;;;;;5045052;28;20304;-82
2020/12/16 08:28:48;;;;;;;10.20;7.27;;;9.30;99.90;;;;;;5039934;28;20218;-84
2020/12/16 08:31:19;;;;;;;10.00;7.32;;;9.40;99.90;;;;;;5040461;28;20474;-83
2020/12/16 08:33:48;;;;;;;11.98;8.52;;;9.60;99.90;;;;;;5045480;28;20203;-82
2020/12/16 08:36:22;;;;;;;8.50;6.82;;;9.60;99.90;;;;;;5037089;28;20206;-85
2020/12/16 08:38:51;;;;;;;11.02;7.50;;;9.60;99.90;;;;;;5041489;28;20254;-84
2020/12/16 08:41:25;;;;;;;10.40;6.63;;;9.90;99.90;;;;;;5035731;28;20231;-84
2020/12/16 08:43:52;;;;;;;10.38;7.60;;;9.80;99.90;;;;;;5035552;28;20503;-83
2020/12/16 08:46:23;;;;;;;11.27;8.00;;;9.70;99.90;;;;;;5034730;28;20199;-83
2020/12/16 08:48:51;;;;;;;11.23;7.32;;;9.80;99.90;;;;;;5051754;28;20453;-84
2020/12/16 08:51:19;;;;;;;12.97;7.47;;;9.80;99.90;;;;;;5054242;28;20226;-82
2020/12/16 08:53:49;;;;;;;11.50;6.70;;;10.00;99.90;;;;;;5054949;28;20481;-82
2020/12/16 08:56:30;;;;;;;9.40;7.10;;;9.90;99.90;;;;;;5056534;28;20445;-82
2020/12/16 08:59:05;;;;;;;13.43;7.47;;;10.00;99.90;;;;;;5056652;28;20449;-84
2020/12/16 09:01:33;;;;;;;8.60;6.60;;;9.80;99.90;;;;;;5053099;28;20254;-82
2020/12/16 09:03:59;;;;;;;9.30;6.47;;;9.90;99.90;;;;;;5044188;28;20626;-83
2020/12/16 09:06:26;;;;;;;11.05;7.68;;;9.80;99.90;;;;;;5055185;28;20206;-81
2020/12/16 09:08:53;;;;;;;10.00;6.60;;;9.90;99.90;;;;;;5047754;28;20203;-82
2020/12/16 09:11:20;;;;;;;9.77;7.00;;;9.70;99.90;;;;;;5035936;28;20240;-82
2020/12/16 09:13:47;;;;;;;8.55;5.30;;;9.90;99.90;;;;;;5034509;28;20454;-82
2020/12/16 09:16:21;;;;;;;9.90;7.32;;;10.10;99.90;;;;;;5034950;28;20207;-84
2020/12/16 09:18:49;;;;;;;9.73;6.60;;;10.30;99.90;;;;;;5042174;28;20207;-84
2020/12/16 09:21:17;;;;;;;10.50;7.40;;;10.20;99.90;;;;;;5039146;28;20732;-83
2020/12/16 09:23:45;;;;;;;11.55;7.57;;;10.20;99.90;;;;;;5040198;28;20229;-84
2020/12/16 09:26:11;;;;;;;7.85;5.70;;;10.20;99.90;;;;;;5038720;28;20677;-83
2020/12/16 09:28:39;;;;;;;9.27;6.57;;;10.20;99.90;;;;;;5037668;28;20199;-83
2020/12/16 09:31:16;;;;;;;8.30;6.32;;;10.30;99.90;;;;;;5035827;28;20219;-83
2020/12/16 09:33:54;;;;;;;11.27;7.05;;;10.20;99.90;;;;;;5025517;28;20332;-81
2020/12/16 09:36:25;;;;;;;10.33;6.30;;;10.40;99.90;;;;;;5034695;28;20202;-83
2020/12/16 09:38:55;;;;;;;10.83;6.20;;;10.40;99.90;;;;;;5031885;28;20944;-80
2020/12/16 09:41:22;;;;;;;10.80;6.13;;;10.40;99.90;;;;;;5033800;28;20500;-83
2020/12/16 09:43:48;;;;;;;10.53;6.83;;;10.40;99.90;;;;;;5036705;28;20898;-84
2020/12/16 09:46:17;;;;;;;8.30;5.80;;;10.40;99.90;;;;;;5035333;28;20450;-84
2020/12/16 09:48:44;;;;;;;8.40;6.00;;;10.40;99.90;;;;;;5033905;28;20446;-84
2020/12/16 09:51:12;;;;;;;7.83;5.30;;;10.50;99.90;;;;;;5035409;28;20470;-84
2020/12/16 09:53:40;;;;;;;6.13;4.73;;;10.50;99.90;;;;;;5035400;28;20462;-82
2020/12/16 09:56:07;;;;;;;13.23;6.00;;;10.60;99.90;;;;;;5034485;28;20416;-82
2020/12/16 09:58:37;;;;;;;8.80;5.50;;;10.60;99.90;;;;;;5032419;28;20450;-83
2020/12/16 10:01:04;;;;;;;9.50;5.90;;;10.60;99.90;;;;;;5032640;28;20491;-80
2020/12/16 10:03:30;;;;;;;7.23;5.20;;;10.50;99.90;;;;;;5031624;28;20539;-82
2020/12/16 10:05:57;;;;;;;13.00;6.70;;;10.50;99.90;;;;;;5032224;28;20446;-82
2020/12/16 10:08:24;;;;;;;8.45;5.82;;;10.80;99.90;;;;;;5035842;28;20499;-83
2020/12/16 10:10:51;;;;;;;10.47;6.00;;;10.70;99.90;;;;;;5035975;28;20273;-84
2020/12/16 10:13:17;;;;;;;8.77;6.87;;;10.80;99.90;;;;;;5036095;28;20948;-85
2020/12/16 10:15:44;;;;;;;12.17;6.17;;;10.80;99.90;;;;;;5035488;28;20464;-84
2020/12/16 10:18:11;;;;;;;10.80;6.70;;;10.80;99.90;;;;;;5040150;28;20704;-84
2020/12/16 10:20:38;;;;;;;12.20;7.53;;;10.90;99.90;;;;;;5037639;28;20536;-84
2020/12/16 10:23:06;;;;;;;11.63;7.20;;;11.00;99.90;;;;;;5040431;28;20469;-84
2020/12/16 10:25:33;;;;;;;9.73;7.27;;;10.80;99.90;;;;;;5040703;28;20869;-82
2020/12/16 10:28:00;;;;;;;8.83;6.43;;;10.90;99.90;;;;;;5040162;28;20454;-82
2020/12/16 10:30:27;;;;;;;9.83;6.90;;;10.90;99.90;;;;;;5039497;28;20465;-84
2020/12/16 10:32:53;;;;;;;7.77;6.10;;;10.90;99.90;;;;;;5039219;28;20683;-83
2020/12/16 10:35:21;;;;;;;10.00;6.93;;;10.90;99.90;;;;;;5039593;28;20454;-84
2020/12/16 10:37:48;;;;;;;13.13;7.37;;;11.00;99.90;;;;;;5014805;28;20493;-76
2020/12/16 10:40:14;;;;;;;10.43;7.73;;;11.20;99.90;;;;;;5028729;28;20492;-76
2020/12/16 10:42:41;;;;;;;13.70;7.33;;;11.20;99.90;;;;;;5043145;28;20550;-76
2020/12/16 10:45:08;;;;;;;10.90;8.30;;;11.30;99.90;;;;;;5044375;28;20425;-80
2020/12/16 10:47:35;;;;;;;13.23;8.60;;;11.40;99.90;;;;;;5036889;28;21046;-81
2020/12/16 10:50:03;;;;;;;15.37;8.60;;;11.50;99.90;;;;;;5036767;28;20787;-79
2020/12/16 10:52:29;;;;;;;11.23;8.10;;;11.40;99.90;;;;;;5035603;28;20474;-79
2020/12/16 10:54:56;;;;;;;10.47;7.43;;;11.50;99.90;;;;;;5036692;28;20534;-80
2020/12/16 10:57:24;;;;;;;10.87;7.83;;;11.60;99.90;;;;;;5036308;28;20429;-81
2020/12/16 10:59:50;;;;;;;11.80;8.17;;;11.50;99.90;;;;;;5035700;28;20564;-81
2020/12/16 11:02:18;;;;;;;12.67;8.73;;;11.60;99.90;;;;;;5035467;28;20474;-81
2020/12/16 11:04:45;;;;;;;11.50;8.40;;;11.70;99.90;;;;;;5035385;28;20512;-80
2020/12/16 11:07:12;;;;;;;11.47;8.97;;;11.70;99.90;;;;;;5038145;28;20428;-83
2020/12/16 11:09:38;;;;;;;11.10;8.53;;;11.80;99.90;;;;;;5038669;28;20515;-82
2020/12/16 11:12:05;;;;;;;12.20;9.00;;;11.80;99.90;;;;;;5041639;28;20440;-84
2020/12/16 11:14:31;;;;;;;19.30;11.00;;;11.90;99.90;;;;;;5040524;28;20474;-81
2020/12/16 11:16:58;;;;;;;17.27;9.37;;;11.90;99.90;;;;;;5036686;28;20442;-83
2020/12/16 11:19:26;;;;;;;13.20;7.80;;;11.90;99.90;;;;;;5037476;28;20779;-83
2020/12/16 11:21:53;;;;;;;11.70;8.50;;;11.90;99.90;;;;;;5037707;28;20452;-82
2020/12/16 11:24:22;;;;;;;11.07;9.07;;;12.00;99.90;;;;;;5037537;28;20490;-84
2020/12/16 11:26:49;;;;;;;10.97;8.30;;;12.10;99.90;;;;;;5037657;28;20458;-83
2020/12/16 11:29:18;;;;;;;13.43;9.40;;;12.30;99.90;;;;;;5036187;28;20424;-83
2020/12/16 11:31:47;;;;;;;10.63;8.23;;;12.40;99.90;;;;;;5035484;28;20452;-82
2020/12/16 11:34:16;;;;;;;13.37;9.70;;;12.50;99.90;;;;;;5037931;28;20424;-83
2020/12/16 11:36:48;;;;;;;10.60;8.20;;;12.60;99.90;;;;;;5047341;28;20531;-84
2020/12/16 11:39:15;;;;;;;11.80;7.97;;;12.80;99.90;;;;;;5041799;28;20454;-84
2020/12/16 11:41:43;;;;;;;12.70;8.40;;;12.70;99.90;;;;;;5037486;28;20512;-84
2020/12/16 11:44:10;;;;;;;12.80;7.30;;;12.50;99.90;;;;;;5049755;28;20431;-84
2020/12/16 11:46:36;;;;;;;10.33;7.03;;;12.60;99.90;;;;;;5059036;28;20449;-83
2020/12/16 11:49:04;;;;;;;14.83;9.97;;;12.70;99.90;;;;;;5058537;28;20460;-84
2020/12/16 11:51:30;;;;;;;13.50;9.90;;;12.80;99.90;;;;;;5059999;28;20470;-84
2020/12/16 11:53:58;;;;;;;15.10;9.40;;;12.70;99.90;;;;;;5061244;28;21027;-82
2020/12/16 11:56:25;;;;;;;10.77;8.43;;;12.70;99.90;;;;;;5044667;28;20474;-84
2020/12/16 11:58:52;;;;;;;12.13;7.93;;;12.80;99.90;;;;;;5037404;28;21006;-84
2020/12/16 12:01:22;;;;;;;14.17;8.83;;;12.90;99.90;;;;;;5049359;28;20557;-84
2020/12/16 12:04:15;;;;;;;14.30;9.20;;;13.00;99.90;;;;;;5043874;28;20899;-84
2020/12/16 12:06:43;;;;;;;12.90;7.53;;;13.10;99.90;;;;;;5055975;28;20505;-83
2020/12/16 12:09:11;;;;;;;13.17;10.40;;;13.10;99.90;;;;;;5044380;28;20461;-84
2020/12/16 12:11:38;;;;;;;10.60;8.10;;;13.10;99.90;;;;;;5041712;28;20500;-82
2020/12/16 12:14:04;;;;;;;12.00;9.43;;;13.10;99.90;;;;;;5039416;28;20454;-83
2020/12/16 12:16:31;;;;;;;12.07;9.33;;;13.00;99.90;;;;;;5035804;28;20426;-84
2020/12/16 12:18:57;;;;;;;10.87;7.30;;;12.90;99.90;;;;;;5035628;28;20452;-84
2020/12/16 12:21:24;;;;;;;10.27;7.70;;;13.00;99.90;;;;;;5035189;28;20471;-82
2020/12/16 12:23:51;;;;;;;10.80;8.50;;;13.00;99.90;;;;;;5035914;28;20494;-82
2020/12/16 12:26:18;;;;;;;14.60;8.77;;;12.90;99.90;;;;;;5035984;28;20431;-82
2020/12/16 12:28:44;;;;;;;11.30;8.90;;;12.90;99.90;;;;;;5035275;28;20461;-83
2020/12/16 12:31:17;;;;;;;13.97;8.33;;;12.80;99.90;;;;;;5035619;28;20903;-83
2020/12/16 12:33:43;;;;;;;11.10;8.70;;;12.80;99.90;;;;;;5030917;28;20459;-84
2020/12/16 12:36:11;;;;;;;10.63;8.03;;;12.70;99.90;;;;;;5034780;28;20525;-83
2020/12/16 12:38:38;;;;;;;12.10;9.10;;;12.80;99.90;;;;;;5032725;28;20439;-80
2020/12/16 12:41:04;;;;;;;11.03;8.23;;;12.80;99.90;;;;;;5033648;28;20499;-82
2020/12/16 12:43:32;;;;;;;12.77;9.03;;;12.80;99.90;;;;;;5034949;28;20461;-83
2020/12/16 12:45:58;;;;;;;13.17;8.60;;;12.80;99.90;;;;;;5035441;28;20421;-84
2020/12/16 12:48:25;;;;;;;12.13;8.27;;;12.90;99.90;;;;;;5032096;28;20421;-81
2020/12/16 12:50:51;;;;;;;11.80;8.80;;;12.90;99.90;;;;;;5033230;28;20824;-83